createdAt,value
2019-04-28T00:02:22.478Z,100993.25
2019-04-28T00:04:54.262Z,100996.97
2019-04-28T00:07:32.219Z,100988.19
2019-04-28T00:10:23.030Z,100994.23
2019-04-28T00:12:57.118Z,100999.95
2019-04-28T00:18:51.125Z,100995.10
2019-04-28T00:21:33.816Z,100996.48
2019-04-28T00:24:32.772Z,100995.34
2019-04-28T00:27:27.384Z,100992.59
2019-04-28T00:29:59.136Z,100990.79
2019-04-28T00:32:54.062Z,100996.03
2019-04-28T00:36:02.480Z,101000.47
2019-04-28T00:38:56.130Z,100996.08
2019-04-28T00:41:26.466Z,101001.58
2019-04-28T00:43:56.637Z,101003.44
2019-04-28T00:46:31.884Z,101001.72
2019-04-28T00:49:02.281Z,101007.92
2019-04-28T00:51:32.375Z,101006.94
2019-04-28T00:54:02.626Z,101005.27
2019-04-28T00:56:32.734Z,101005.27
2019-04-28T00:59:02.994Z,101003.77
2019-04-28T01:01:51.371Z,100993.02
2019-04-28T01:04:22.041Z,100995.98
2019-04-28T01:06:53.318Z,100995.59
2019-04-28T01:09:31.591Z,101002.81
2019-04-28T01:12:03.422Z,101007.72
2019-04-28T01:14:36.283Z,101002.91
2019-04-28T01:17:19.826Z,101005.56
2019-04-28T01:19:51.988Z,101008.97
2019-04-28T01:22:22.104Z,101021.78
2019-04-28T01:24:53.858Z,101017.31
2019-04-28T01:27:50.496Z,101016.87
2019-04-28T01:30:45.564Z,101019.18
2019-04-28T01:36:14.877Z,101019.63
2019-04-28T01:38:45.038Z,101023.28
2019-04-28T01:41:15.219Z,101025.48
2019-04-28T01:43:45.340Z,101027.22
2019-04-28T01:46:15.507Z,101030.73
2019-04-28T01:48:45.697Z,101030.69
2019-04-28T01:51:15.893Z,101034.29
2019-04-28T01:53:46.021Z,101038.29
2019-04-28T01:56:16.183Z,101033.85
2019-04-28T01:58:46.378Z,101041.34
2019-04-28T02:01:16.535Z,101044.42
2019-04-28T02:03:46.705Z,101046.52
2019-04-28T02:06:16.873Z,101045.21
2019-04-28T02:08:46.951Z,101048.23
2019-04-28T02:11:19.809Z,101044.67
2019-04-28T02:13:50.003Z,101053.94
2019-04-28T02:16:20.199Z,101047.75
2019-04-28T02:18:50.321Z,101048.68
2019-04-28T02:21:34.539Z,101055.17
2019-04-28T02:24:22.801Z,101051.66
2019-04-28T02:26:53.131Z,101055.19
2019-04-28T02:29:23.231Z,101054.27
2019-04-28T02:31:53.624Z,101063.50
2019-04-28T02:34:23.771Z,101060.87
2019-04-28T02:36:54.186Z,101067.95
2019-04-28T02:39:24.376Z,101067.50
2019-04-28T02:41:54.544Z,101067.14
2019-04-28T02:44:25.647Z,101066.20
2019-04-28T02:46:55.789Z,101070.19
2019-04-28T02:49:31.327Z,101075.88
2019-04-28T02:52:10.730Z,101072.30
2019-04-28T02:54:41.084Z,101081.64
2019-04-28T02:57:11.300Z,101073.67
2019-04-28T02:59:44.629Z,101079.41
2019-04-28T03:02:13.320Z,101074.98
2019-04-28T03:04:43.452Z,101078.88
2019-04-28T03:07:14.601Z,101079.84
2019-04-28T03:09:45.329Z,101086.51
2019-04-28T03:12:15.481Z,101083.75
2019-04-28T03:14:45.683Z,101085.95
2019-04-28T03:17:15.969Z,101086.85
2019-04-28T03:19:46.317Z,101091.34
2019-04-28T03:22:16.681Z,101083.77
2019-04-28T03:24:51.076Z,101086.44
2019-04-28T03:27:45.584Z,101089.08
2019-04-28T03:30:34.162Z,101094.38
2019-04-28T03:33:11.629Z,101091.68
2019-04-28T03:35:37.807Z,101090.78
2019-04-28T03:38:07.948Z,101094.44
2019-04-28T03:40:38.065Z,101097.03
2019-04-28T03:43:10.497Z,101096.11
2019-04-28T03:45:46.459Z,101103.18
2019-04-28T03:48:16.611Z,101098.77
2019-04-28T03:50:46.816Z,101096.99
2019-04-28T03:53:16.957Z,101100.97
2019-04-28T03:55:47.069Z,101112.86
2019-04-28T03:58:17.227Z,101102.73
2019-04-28T04:00:47.411Z,101110.27
2019-04-28T04:03:17.551Z,101110.27
2019-04-28T04:05:50.759Z,101115.13
2019-04-28T04:08:22.271Z,101122.25
2019-04-28T04:11:11.039Z,101117.30
2019-04-28T04:14:04.007Z,101124.31
2019-04-28T04:16:45.901Z,101126.59
2019-04-28T04:19:16.241Z,101121.63
2019-04-28T04:21:46.434Z,101129.56
2019-04-28T04:24:16.641Z,101126.00
2019-04-28T04:26:46.923Z,101128.24
2019-04-28T04:29:17.213Z,101134.45
2019-04-28T04:31:47.332Z,101136.98
2019-04-28T04:34:20.069Z,101140.55
2019-04-28T04:36:50.936Z,101137.94
2019-04-28T04:39:21.237Z,101148.48
2019-04-28T04:41:51.800Z,101139.66
2019-04-28T04:44:22.033Z,101142.83
2019-04-28T04:46:52.393Z,101141.43
2019-04-28T04:49:25.406Z,101143.59
2019-04-28T04:51:55.517Z,101147.12
2019-04-28T04:54:25.815Z,101148.41
2019-04-28T04:56:56.066Z,101156.30
2019-04-28T04:59:26.614Z,101160.42
2019-04-28T05:02:33.114Z,101157.20
2019-04-28T05:05:14.270Z,101168.19
2019-04-28T05:07:44.402Z,101166.52
2019-04-28T05:10:16.734Z,101170.89
2019-04-28T05:12:47.442Z,101177.47
2019-04-28T05:15:17.550Z,101172.17
2019-04-28T05:17:47.680Z,101176.14
2019-04-28T05:20:17.824Z,101176.55
2019-04-28T05:23:00.984Z,101182.23
2019-04-28T05:25:36.717Z,101184.08
2019-04-28T05:28:06.832Z,101179.06
2019-04-28T05:30:39.783Z,101188.31
2019-04-28T05:33:10.604Z,101178.09
2019-04-28T05:35:40.765Z,101189.98
2019-04-28T05:38:10.907Z,101191.75
2019-04-28T05:40:41.134Z,101190.78
2019-04-28T05:43:42.626Z,101200.93
2019-04-28T05:46:12.799Z,101197.84
2019-04-28T05:48:56.156Z,101202.13
2019-04-28T05:51:29.858Z,101199.39
2019-04-28T05:54:31.225Z,101201.28
2019-04-28T05:57:13.465Z,101202.90
2019-04-28T06:00:03.680Z,101207.64
2019-04-28T06:02:39.539Z,101208.98
2019-04-28T06:05:10.149Z,101214.34
2019-04-28T06:07:59.603Z,101220.91
2019-04-28T06:10:30.006Z,101218.58
2019-04-28T06:13:00.111Z,101222.95
2019-04-28T06:15:30.458Z,101219.41
2019-04-28T06:18:00.860Z,101223.37
2019-04-28T06:20:31.745Z,101224.68
2019-04-28T06:23:04.270Z,101225.94
2019-04-28T06:25:34.427Z,101234.22
2019-04-28T06:28:04.869Z,101238.45
2019-04-28T06:30:36.147Z,101240.21
2019-04-28T06:33:08.111Z,101234.73
2019-04-28T06:35:38.446Z,101233.60
2019-04-28T06:38:08.720Z,101241.46
2019-04-28T06:40:39.143Z,101238.00
2019-04-28T06:43:09.473Z,101243.69
2019-04-28T06:45:39.643Z,101242.98
2019-04-28T06:48:09.806Z,101250.59
2019-04-28T06:50:40.031Z,101245.89
2019-04-28T06:53:10.210Z,101246.45
2019-04-28T06:55:40.859Z,101249.09
2019-04-28T06:58:11.161Z,101254.95
2019-04-28T07:00:41.335Z,101247.80
2019-04-28T07:03:22.692Z,101249.52
2019-04-28T07:05:43.467Z,101255.38
2019-04-28T07:08:13.985Z,101258.74
2019-04-28T07:10:44.371Z,101265.38
2019-04-28T07:13:14.575Z,101267.92
2019-04-28T07:15:45.230Z,101261.80
2019-04-28T07:18:18.796Z,101265.13
2019-04-28T07:21:06.470Z,101271.59
2019-04-28T07:23:37.698Z,101275.36
2019-04-28T07:26:07.902Z,101276.84
2019-04-28T07:28:38.061Z,101280.16
2019-04-28T07:31:08.247Z,101279.12
2019-04-28T07:33:38.402Z,101284.23
2019-04-28T07:36:08.594Z,101286.16
2019-04-28T07:38:38.923Z,101291.05
2019-04-28T07:41:09.056Z,101296.03
2019-04-28T07:43:39.205Z,101294.34
2019-04-28T07:46:10.247Z,101296.58
2019-04-28T07:48:40.410Z,101297.69
2019-04-28T07:51:10.556Z,101292.99
2019-04-28T07:53:52.452Z,101302.97
2019-04-28T07:56:22.601Z,101296.58
2019-04-28T07:58:52.785Z,101303.02
2019-04-28T08:01:22.947Z,101312.80
2019-04-28T08:03:53.209Z,101311.82
2019-04-28T08:06:23.430Z,101309.27
2019-04-28T08:08:53.530Z,101299.42
2019-04-28T08:11:23.735Z,101306.20
2019-04-28T08:13:53.870Z,101309.61
2019-04-28T08:16:24.016Z,101310.58
2019-04-28T08:18:54.168Z,101315.02
2019-04-28T08:21:24.335Z,101318.18
2019-04-28T08:23:54.417Z,101324.41
2019-04-28T08:26:24.565Z,101319.91
2019-04-28T08:28:54.711Z,101322.14
2019-04-28T08:31:28.359Z,101324.20
2019-04-28T08:34:03.939Z,101323.12
2019-04-28T08:36:34.066Z,101321.52
2019-04-28T08:39:06.424Z,101328.16
2019-04-28T08:41:37.009Z,101327.63
2019-04-28T08:44:07.200Z,101334.37
2019-04-28T08:46:37.425Z,101332.14
2019-04-28T08:49:07.571Z,101333.19
2019-04-28T08:51:37.776Z,101329.95
2019-04-28T08:54:07.915Z,101324.56
2019-04-28T08:56:38.046Z,101323.85
2019-04-28T08:59:08.227Z,101319.97
2019-04-28T09:01:38.361Z,101319.46
2019-04-28T09:04:15.060Z,101327.84
2019-04-28T09:06:40.447Z,101325.44
2019-04-28T09:09:18.015Z,101329.55
2019-04-28T09:11:50.969Z,101336.44
2019-04-28T09:14:21.226Z,101334.80
2019-04-28T09:16:51.344Z,101337.75
2019-04-28T09:19:21.642Z,101331.70
2019-04-28T09:21:51.790Z,101334.80
2019-04-28T09:24:21.980Z,101334.23
2019-04-28T09:26:52.102Z,101338.44
2019-04-28T09:29:22.328Z,101339.62
2019-04-28T09:31:52.470Z,101332.64
2019-04-28T09:34:28.555Z,101343.18
2019-04-28T09:36:54.538Z,101348.95
2019-04-28T09:39:44.834Z,101350.89
2019-04-28T09:42:32.518Z,101356.79
2019-04-28T09:45:03.602Z,101362.87
2019-04-28T09:47:34.415Z,101362.14
2019-04-28T09:50:04.646Z,101372.91
2019-04-28T09:52:34.784Z,101365.02
2019-04-28T09:55:05.074Z,101368.95
2019-04-28T09:57:35.241Z,101365.84
2019-04-28T10:00:06.241Z,101362.53
2019-04-28T10:02:36.856Z,101367.09
2019-04-28T10:05:07.220Z,101372.98
2019-04-28T10:07:37.368Z,101370.41
2019-04-28T10:10:07.736Z,101374.43
2019-04-28T10:12:38.061Z,101373.52
2019-04-28T10:15:09.155Z,101380.31
2019-04-28T10:17:39.368Z,101381.27
2019-04-28T10:20:10.734Z,101384.53
2019-04-28T10:22:40.821Z,101393.67
2019-04-28T10:25:12.230Z,101399.73
2019-04-28T10:27:42.590Z,101406.02
2019-04-28T10:30:13.602Z,101417.24
2019-04-28T10:32:43.755Z,101421.44
2019-04-28T10:35:15.095Z,101424.08
2019-04-28T10:37:45.767Z,101429.75
2019-04-28T10:40:56.036Z,101437.91
2019-04-28T10:43:26.214Z,101447.55
2019-04-28T10:45:56.400Z,101446.27
2019-04-28T10:48:26.967Z,101451.11
2019-04-28T10:50:57.143Z,101453.34
2019-04-28T10:53:27.270Z,101446.09
2019-04-28T10:55:57.510Z,101448.15
2019-04-28T10:58:27.701Z,101440.78
2019-04-28T11:01:02.353Z,101440.70
2019-04-28T11:03:32.643Z,101436.69
2019-04-28T11:06:02.818Z,101435.94
2019-04-28T11:08:59.174Z,101433.36
2019-04-28T11:11:29.426Z,101424.11
2019-04-28T11:13:59.544Z,101429.66
2019-04-28T11:16:36.082Z,101421.62
2019-04-28T11:19:07.823Z,101430.87
2019-04-28T11:21:38.598Z,101428.84
2019-04-28T11:24:08.899Z,101425.36
2019-04-28T11:26:39.036Z,101419.68
2019-04-28T11:29:10.469Z,101421.52
2019-04-28T11:31:40.586Z,101427.08
2019-04-28T11:34:25.297Z,101425.76
2019-04-28T11:36:55.465Z,101424.48
2019-04-28T11:39:37.827Z,101417.92
2019-04-28T11:42:08.016Z,101425.85
2019-04-28T11:44:38.207Z,101424.92
2019-04-28T11:47:10.731Z,101422.84
2019-04-28T11:49:40.843Z,101411.95
2019-04-28T11:52:11.378Z,101417.61
2019-04-28T11:54:41.549Z,101414.48
2019-04-28T11:57:11.718Z,101412.58
2019-04-28T11:59:41.911Z,101421.71
2019-04-28T12:02:12.161Z,101419.63
2019-04-28T12:04:46.689Z,101415.94
2019-04-28T12:07:14.147Z,101421.47
2019-04-28T12:10:04.316Z,101415.80
2019-04-28T12:13:02.107Z,101414.00
2019-04-28T12:15:44.125Z,101416.17
2019-04-28T12:18:33.207Z,101415.80
2019-04-28T12:21:06.523Z,101417.66
2019-04-28T12:23:36.753Z,101410.19
2019-04-28T12:26:06.980Z,101410.80
2019-04-28T12:28:37.105Z,101417.14
2019-04-28T12:31:07.535Z,101412.23
2019-04-28T12:33:39.295Z,101415.95
2019-04-28T12:36:10.009Z,101421.92
2019-04-28T12:38:40.125Z,101422.05
2019-04-28T12:41:12.646Z,101424.09
2019-04-28T12:43:42.769Z,101431.81
2019-04-28T12:49:15.642Z,101427.91
2019-04-28T12:51:47.494Z,101430.67
2019-04-28T12:54:19.687Z,101434.93
2019-04-28T12:59:40.040Z,101434.52
2019-04-28T13:02:26.155Z,101437.72
2019-04-28T13:05:00.767Z,101436.28
2019-04-28T13:10:29.087Z,101433.25
2019-04-28T13:13:01.976Z,101432.83
2019-04-28T13:15:59.409Z,101438.84
2019-04-28T13:18:49.387Z,101436.41
2019-04-28T13:21:21.357Z,101438.67
2019-04-28T13:26:52.306Z,101434.13
2019-04-28T13:29:40.716Z,101435.41
2019-04-28T13:32:14.238Z,101438.91
2019-04-28T13:34:48.647Z,101438.59
2019-04-28T13:37:42.856Z,101434.27
2019-04-28T13:40:18.738Z,101437.43
2019-04-28T13:42:51.274Z,101435.58
2019-04-28T13:54:05.273Z,101442.92
2019-04-28T13:56:35.496Z,101437.79
2019-04-28T13:59:14.088Z,101444.69
2019-04-28T14:01:52.374Z,101443.45
2019-04-28T14:04:51.660Z,101445.28
2019-04-28T14:07:22.056Z,101435.23
2019-04-28T14:09:52.347Z,101440.67
2019-04-28T14:12:24.880Z,101435.88
2019-04-28T14:14:55.145Z,101443.14
2019-04-28T14:17:25.338Z,101438.34
2019-04-28T14:19:55.484Z,101439.89
2019-04-28T14:22:27.325Z,101444.53
2019-04-28T14:24:59.845Z,101437.16
2019-04-28T14:27:34.814Z,101437.81
2019-04-28T14:30:05.273Z,101443.28
2019-04-28T14:32:35.372Z,101447.33
2019-04-28T14:35:07.365Z,101450.30
2019-04-28T14:37:37.554Z,101453.41
2019-04-28T14:40:08.511Z,101456.70
2019-04-28T14:42:40.742Z,101461.20
2019-04-28T14:45:11.305Z,101455.21
2019-04-28T14:47:41.382Z,101461.80
2019-04-28T14:50:12.495Z,101461.78
2019-04-28T14:52:45.663Z,101464.61
2019-04-28T14:55:16.051Z,101469.73
2019-04-28T14:57:50.535Z,101479.34
2019-04-28T15:00:25.514Z,101484.95
2019-04-28T15:02:59.994Z,101485.98
2019-04-28T15:05:39.285Z,101492.27
2019-04-28T15:08:27.341Z,101487.22
2019-04-28T15:11:08.061Z,101489.02
2019-04-28T15:13:39.988Z,101491.22
2019-04-28T15:16:11.128Z,101493.12
2019-04-28T15:18:43.934Z,101494.70
2019-04-28T15:21:14.970Z,101490.41
2019-04-28T15:23:45.613Z,101493.73
2019-04-28T15:26:15.916Z,101492.48
2019-04-28T15:28:49.150Z,101496.95
2019-04-28T15:31:19.337Z,101498.91
2019-04-28T15:33:49.658Z,101500.17
2019-04-28T15:36:19.936Z,101497.55
2019-04-28T15:38:57.651Z,101494.28
2019-04-28T15:41:34.435Z,101497.73
2019-04-28T15:44:06.210Z,101498.28
2019-04-28T15:46:37.565Z,101498.83
2019-04-28T15:49:07.871Z,101500.97
2019-04-28T15:51:39.619Z,101504.47
2019-04-28T15:54:09.841Z,101506.55
2019-04-28T15:56:46.032Z,101502.62
2019-04-28T15:59:16.399Z,101504.31
2019-04-28T16:01:46.624Z,101507.29
2019-04-28T16:04:18.450Z,101506.27
2019-04-28T16:06:49.553Z,101497.38
2019-04-28T16:09:19.948Z,101504.20
2019-04-28T16:11:50.967Z,101502.16
2019-04-28T16:14:21.243Z,101506.00
2019-04-28T16:16:52.081Z,101504.08
2019-04-28T16:19:23.102Z,101510.27
2019-04-28T16:21:53.567Z,101506.48
2019-04-28T16:24:24.149Z,101515.05
2019-04-28T16:26:54.436Z,101506.20
2019-04-28T16:29:30.497Z,101503.80
2019-04-28T16:32:04.943Z,101499.75
2019-04-28T16:34:35.278Z,101497.31
2019-04-28T16:37:13.110Z,101498.77
2019-04-28T16:39:43.367Z,101500.72
2019-04-28T16:42:33.022Z,101500.30
2019-04-28T16:45:28.597Z,101497.53
2019-04-28T16:48:00.877Z,101498.95
2019-04-28T16:50:32.659Z,101498.84
2019-04-28T16:53:04.537Z,101506.09
2019-04-28T16:55:56.595Z,101499.25
2019-04-28T16:58:36.381Z,101495.08
2019-04-28T17:01:21.737Z,101505.17
2019-04-28T17:03:52.125Z,101503.55
2019-04-28T17:06:22.367Z,101504.80
2019-04-28T17:08:54.979Z,101511.09
2019-04-28T17:11:25.610Z,101506.75
2019-04-28T17:13:55.881Z,101507.13
2019-04-28T17:16:25.998Z,101517.47
2019-04-28T17:18:56.378Z,101516.80
2019-04-28T17:21:26.749Z,101511.08
2019-04-28T17:24:01.405Z,101510.94
2019-04-28T17:26:33.670Z,101517.28
2019-04-28T17:29:05.293Z,101511.56
2019-04-28T17:31:37.335Z,101512.28
2019-04-28T17:34:08.102Z,101515.27
2019-04-28T17:36:38.452Z,101520.31
2019-04-28T17:39:19.004Z,101525.97
2019-04-28T17:41:50.886Z,101529.52
2019-04-28T17:44:21.301Z,101524.06
2019-04-28T17:46:53.074Z,101530.61
2019-04-28T17:49:32.300Z,101531.56
2019-04-28T17:52:02.460Z,101537.50
2019-04-28T17:54:35.269Z,101536.89
2019-04-28T17:57:07.268Z,101548.64
2019-04-28T17:59:38.060Z,101556.19
2019-04-28T18:02:33.783Z,101548.66
2019-04-28T18:05:21.209Z,101557.03
2019-04-28T18:08:00.494Z,101561.67
2019-04-28T18:10:32.538Z,101564.91
2019-04-28T18:13:02.844Z,101563.24
2019-04-28T18:15:51.252Z,101567.56
2019-04-28T18:18:43.925Z,101572.16
2019-04-28T18:21:14.406Z,101567.97
2019-04-28T18:23:44.767Z,101567.27
2019-04-28T18:26:15.021Z,101575.87
2019-04-28T18:28:45.382Z,101580.61
2019-04-28T18:31:32.762Z,101586.12
2019-04-28T18:34:14.614Z,101592.77
2019-04-28T18:36:51.656Z,101598.03
2019-04-28T18:39:47.074Z,101598.64
2019-04-28T18:42:27.751Z,101606.42
2019-04-28T18:44:57.948Z,101610.50
2019-04-28T18:47:28.191Z,101620.38
2019-04-28T18:50:02.181Z,101627.97
2019-04-28T18:52:37.299Z,101631.80
2019-04-28T18:55:07.730Z,101644.66
2019-04-28T18:57:39.122Z,101647.89
2019-04-28T19:00:11.116Z,101656.87
2019-04-28T19:02:47.502Z,101653.87
2019-04-28T19:05:20.556Z,101653.13
2019-04-28T19:08:22.216Z,101662.05
2019-04-28T19:11:31.809Z,101667.03
2019-04-28T19:14:07.251Z,101669.75
2019-04-28T19:16:55.334Z,101672.05
2019-04-28T19:19:27.748Z,101667.66
2019-04-28T19:22:03.100Z,101670.43
2019-04-28T19:24:35.778Z,101673.61
2019-04-28T19:27:05.736Z,101671.52
2019-04-28T19:29:36.188Z,101681.28
2019-04-28T19:32:08.710Z,101683.55
2019-04-28T19:34:38.950Z,101679.67
2019-04-28T19:37:09.150Z,101677.94
2019-04-28T19:39:41.010Z,101683.74
2019-04-28T19:42:11.769Z,101683.80
2019-04-28T19:44:42.269Z,101682.00
2019-04-28T19:47:14.420Z,101686.42
2019-04-28T19:49:45.276Z,101692.70
2019-04-28T19:52:15.649Z,101696.27
2019-04-28T19:55:07.304Z,101695.95
2019-04-28T19:57:54.992Z,101698.66
2019-04-28T20:00:35.011Z,101699.95
2019-04-28T20:03:05.934Z,101709.22
2019-04-28T20:05:36.716Z,101709.23
2019-04-28T20:08:11.436Z,101709.22
2019-04-28T20:10:48.668Z,101716.30
2019-04-28T20:13:25.089Z,101710.64
2019-04-28T20:16:05.869Z,101712.84
2019-04-28T20:18:38.370Z,101715.92
2019-04-28T20:21:16.625Z,101717.26
2019-04-28T20:23:50.809Z,101725.70
2019-04-28T20:26:22.707Z,101723.95
2019-04-28T20:28:53.836Z,101726.18
2019-04-28T20:31:26.597Z,101727.08
2019-04-28T20:34:07.019Z,101731.97
2019-04-28T20:36:46.477Z,101727.55
2019-04-28T20:39:24.778Z,101737.69
2019-04-28T20:41:56.853Z,101735.51
2019-04-28T20:44:27.053Z,101732.45
2019-04-28T20:46:57.246Z,101732.00
2019-04-28T20:49:27.466Z,101732.42
2019-04-28T20:51:57.618Z,101736.88
2019-04-28T20:54:27.785Z,101736.89
2019-04-28T20:56:57.979Z,101736.45
2019-04-28T20:59:28.083Z,101733.80
2019-04-28T21:01:58.245Z,101738.66
2019-04-28T21:04:30.759Z,101745.28
2019-04-28T21:07:01.008Z,101743.51
2019-04-28T21:09:31.165Z,101743.94
2019-04-28T21:12:01.467Z,101743.94
2019-04-28T21:14:31.640Z,101752.80
2019-04-28T21:17:01.839Z,101747.51
2019-04-28T21:19:31.972Z,101755.45
2019-04-28T21:22:02.134Z,101756.75
2019-04-28T21:24:32.363Z,101761.63
2019-04-28T21:27:02.501Z,101769.55
2019-04-28T21:29:32.830Z,101771.33
2019-04-28T21:32:03.034Z,101772.64
2019-04-28T21:34:33.176Z,101781.91
2019-04-28T21:37:03.361Z,101775.75
2019-04-28T21:39:33.657Z,101777.49
2019-04-28T21:42:05.445Z,101779.28
2019-04-28T21:44:53.519Z,101778.38
2019-04-28T21:47:29.493Z,101771.77
2019-04-28T21:49:59.585Z,101773.98
2019-04-28T21:52:29.760Z,101771.75
2019-04-28T21:54:59.953Z,101771.30
2019-04-28T21:57:30.260Z,101779.24
2019-04-28T22:00:00.959Z,101780.56
2019-04-28T22:02:30.852Z,101773.95
2019-04-28T22:05:01.077Z,101780.57
2019-04-28T22:07:31.289Z,101780.12
2019-04-28T22:10:01.478Z,101781.45
2019-04-28T22:12:31.783Z,101782.31
2019-04-28T22:15:01.937Z,101777.00
2019-04-28T22:17:32.251Z,101782.70
2019-04-28T22:20:02.409Z,101783.61
2019-04-28T22:22:32.579Z,101787.58
2019-04-28T22:25:09.324Z,101789.31
2019-04-28T22:27:42.371Z,101784.03
2019-04-28T22:30:12.782Z,101794.16
2019-04-28T22:32:42.927Z,101789.28
2019-04-28T22:35:13.295Z,101786.64
2019-04-28T22:37:44.387Z,101788.41
2019-04-28T22:40:14.542Z,101792.83
2019-04-28T22:42:44.755Z,101793.63
2019-04-28T22:45:15.725Z,101787.88
2019-04-28T22:47:46.351Z,101791.84
2019-04-28T22:50:44.600Z,101794.90
2019-04-28T22:53:16.427Z,101790.06
2019-04-28T22:56:02.745Z,101793.62
2019-04-28T22:58:51.849Z,101790.06
2019-04-28T23:01:31.123Z,101791.38
2019-04-28T23:04:04.780Z,101799.72
2019-04-28T23:06:35.967Z,101793.97
2019-04-28T23:09:07.540Z,101793.92
2019-04-28T23:11:39.413Z,101793.86
2019-04-28T23:14:09.601Z,101797.41
2019-04-28T23:16:39.817Z,101801.43
2019-04-28T23:19:13.215Z,101802.77
2019-04-28T23:21:58.159Z,101805.40
2019-04-28T23:24:28.301Z,101808.91
2019-04-28T23:26:58.441Z,101813.31
2019-04-28T23:29:30.622Z,101812.91
2019-04-28T23:32:00.455Z,101815.09
2019-04-28T23:34:30.605Z,101816.84
2019-04-28T23:37:00.794Z,101820.38
2019-04-28T23:39:30.986Z,101815.91
2019-04-28T23:42:06.210Z,101820.78
2019-04-28T23:44:36.326Z,101817.69
2019-04-28T23:47:07.636Z,101824.68
2019-04-28T23:49:37.769Z,101818.45
2019-04-28T23:52:21.997Z,101813.20
2019-04-28T23:54:53.190Z,101812.77
2019-04-28T23:57:23.374Z,101816.20
2019-04-28T23:59:53.526Z,101824.20
